Custer Park, Illinois
Current Conditions -  °F | °C
As of 9:55 PM on Friday 24 Oct 2014 (Local Time) from KJOT Reporting Station
Overcast Overcast  
Wind Chill: 59°   Ceiling: 4100
Heat Index: 59°   Visibility: 10mi
Dew Point: 49°   Wind: 6mph
Humidity: 70%   Direction: 220°SW
Pressure: 29.96"   Gusts: NA
Location:  41.3199°N, 88.0518°W
Report Text: KJOT 250255Z AUTO 22005KT 10SM OVC041 15/10 A2996 RMK AO2 T01500096
Loading
Personal Weather Stations






























Interactive Weather Map
Tropical Storm Tracking
New forecast layout! Learn more

10-Day Weather Forecast

Advertisements
Track Severe Weather on mobile